sensor_id;sensor_type;location;lat;lon;timestamp;pressure;altitude;pressure_sealevel;temperature;humidity
54666;BME280;40566;50.006;36.180;2023-05-16T00:04:36;100120.38;;;14.58;50.11
54666;BME280;40566;50.006;36.180;2023-05-16T00:09:36;100117.16;;;14.50;50.24
54666;BME280;40566;50.006;36.180;2023-05-16T00:14:37;100119.00;;;14.48;50.22
54666;BME280;40566;50.006;36.180;2023-05-16T00:19:37;100125.22;;;14.44;50.86
54666;BME280;40566;50.006;36.180;2023-05-16T00:24:38;100115.88;;;14.38;51.09
54666;BME280;40566;50.006;36.180;2023-05-16T00:29:39;100124.72;;;14.34;51.19
54666;BME280;40566;50.006;36.180;2023-05-16T00:34:39;100121.41;;;14.29;51.37
54666;BME280;40566;50.006;36.180;2023-05-16T00:39:40;100120.69;;;14.25;51.61
54666;BME280;40566;50.006;36.180;2023-05-16T00:44:41;100115.59;;;14.22;51.64
54666;BME280;40566;50.006;36.180;2023-05-16T00:49:42;100105.25;;;14.21;51.84
54666;BME280;40566;50.006;36.180;2023-05-16T00:54:43;100118.34;;;14.18;51.89
54666;BME280;40566;50.006;36.180;2023-05-16T00:59:45;100102.03;;;14.14;51.81
54666;BME280;40566;50.006;36.180;2023-05-16T01:04:46;100116.25;;;14.04;52.06
54666;BME280;40566;50.006;36.180;2023-05-16T01:09:47;100108.69;;;13.98;52.48
54666;BME280;40566;50.006;36.180;2023-05-16T01:15:07;100097.72;;;13.89;52.31
54666;BME280;40566;50.006;36.180;2023-05-16T01:30:21;100098.38;;;13.71;52.85
54666;BME280;40566;50.006;36.180;2023-05-16T01:35:22;100095.78;;;13.71;52.96
54666;BME280;40566;50.006;36.180;2023-05-16T01:40:36;100088.19;;;13.65;53.04
54666;BME280;40566;50.006;36.180;2023-05-16T01:45:43;100091.69;;;13.64;53.40
54666;BME280;40566;50.006;36.180;2023-05-16T01:50:49;100092.59;;;13.63;53.21
54666;BME280;40566;50.006;36.180;2023-05-16T01:55:52;100100.66;;;13.55;53.24
54666;BME280;40566;50.006;36.180;2023-05-16T02:01:00;100090.53;;;13.47;53.41
54666;BME280;40566;50.006;36.180;2023-05-16T02:06:02;100108.91;;;13.41;53.93
54666;BME280;40566;50.006;36.180;2023-05-16T02:11:04;100108.00;;;13.42;54.03
54666;BME280;40566;50.006;36.180;2023-05-16T02:16:04;100109.66;;;13.45;53.90
54666;BME280;40566;50.006;36.180;2023-05-16T02:21:05;100108.59;;;13.51;53.97
54666;BME280;40566;50.006;36.180;2023-05-16T02:26:06;100109.28;;;13.56;53.97
54666;BME280;40566;50.006;36.180;2023-05-16T02:31:06;100110.00;;;13.61;53.92
54666;BME280;40566;50.006;36.180;2023-05-16T02:36:07;100111.59;;;13.65;54.01
54666;BME280;40566;50.006;36.180;2023-05-16T02:41:08;100123.53;;;13.71;53.91
54666;BME280;40566;50.006;36.180;2023-05-16T02:46:31;100106.00;;;13.76;53.72
54666;BME280;40566;50.006;36.180;2023-05-16T02:51:32;100126.59;;;13.82;53.66
54666;BME280;40566;50.006;36.180;2023-05-16T02:56:33;100130.75;;;13.86;53.50
54666;BME280;40566;50.006;36.180;2023-05-16T03:01:33;100138.31;;;13.94;53.36
54666;BME280;40566;50.006;36.180;2023-05-16T03:06:34;100139.84;;;13.99;53.05
54666;BME280;40566;50.006;36.180;2023-05-16T03:11:35;100137.03;;;14.05;53.39
54666;BME280;40566;50.006;36.180;2023-05-16T03:16:35;100136.88;;;14.10;53.99
54666;BME280;40566;50.006;36.180;2023-05-16T03:21:38;100134.94;;;14.15;53.92
54666;BME280;40566;50.006;36.180;2023-05-16T03:26:38;100130.38;;;14.22;53.77
54666;BME280;40566;50.006;36.180;2023-05-16T03:31:39;100136.25;;;14.27;53.47
54666;BME280;40566;50.006;36.180;2023-05-16T03:36:41;100137.78;;;14.33;53.53
54666;BME280;40566;50.006;36.180;2023-05-16T03:41:42;100142.75;;;14.39;53.84
54666;BME280;40566;50.006;36.180;2023-05-16T03:46:43;100152.81;;;14.48;53.56
54666;BME280;40566;50.006;36.180;2023-05-16T03:51:44;100157.69;;;14.57;53.84
54666;BME280;40566;50.006;36.180;2023-05-16T03:56:44;100150.34;;;14.68;53.58
54666;BME280;40566;50.006;36.180;2023-05-16T04:01:45;100145.56;;;14.80;53.50
54666;BME280;40566;50.006;36.180;2023-05-16T04:06:46;100154.84;;;14.87;53.58
54666;BME280;40566;50.006;36.180;2023-05-16T04:11:46;100150.34;;;14.91;53.94
54666;BME280;40566;50.006;36.180;2023-05-16T04:16:47;100152.66;;;14.98;53.74
54666;BME280;40566;50.006;36.180;2023-05-16T04:21:48;100162.72;;;15.07;53.61
54666;BME280;40566;50.006;36.180;2023-05-16T04:26:48;100151.22;;;15.13;53.64
54666;BME280;40566;50.006;36.180;2023-05-16T04:31:50;100154.16;;;15.26;52.99
54666;BME280;40566;50.006;36.180;2023-05-16T04:36:51;100158.22;;;15.33;52.79
54666;BME280;40566;50.006;36.180;2023-05-16T04:41:51;100157.84;;;15.42;52.98
54666;BME280;40566;50.006;36.180;2023-05-16T04:46:52;100151.34;;;15.53;52.17
54666;BME280;40566;50.006;36.180;2023-05-16T04:51:52;100148.94;;;15.69;51.76
54666;BME280;40566;50.006;36.180;2023-05-16T04:56:53;100149.16;;;15.84;51.23
54666;BME280;40566;50.006;36.180;2023-05-16T05:01:54;100143.41;;;15.97;50.61
54666;BME280;40566;50.006;36.180;2023-05-16T05:06:54;100149.63;;;16.13;50.10
54666;BME280;40566;50.006;36.180;2023-05-16T05:11:55;100150.38;;;16.36;49.69
54666;BME280;40566;50.006;36.180;2023-05-16T05:16:56;100149.69;;;16.51;49.35
54666;BME280;40566;50.006;36.180;2023-05-16T05:21:57;100140.28;;;16.66;49.38
54666;BME280;40566;50.006;36.180;2023-05-16T05:26:57;100151.75;;;16.82;48.57
54666;BME280;40566;50.006;36.180;2023-05-16T05:31:58;100149.25;;;16.98;48.66
54666;BME280;40566;50.006;36.180;2023-05-16T05:36:59;100134.53;;;17.15;48.33
54666;BME280;40566;50.006;36.180;2023-05-16T05:42:00;100135.38;;;17.33;48.26
54666;BME280;40566;50.006;36.180;2023-05-16T05:47:06;100128.25;;;17.54;47.86
54666;BME280;40566;50.006;36.180;2023-05-16T05:52:07;100142.06;;;17.73;47.43
54666;BME280;40566;50.006;36.180;2023-05-16T05:57:07;100141.28;;;17.89;47.26
54666;BME280;40566;50.006;36.180;2023-05-16T06:02:08;100144.50;;;18.11;46.58
54666;BME280;40566;50.006;36.180;2023-05-16T06:07:08;100147.16;;;18.27;46.54
54666;BME280;40566;50.006;36.180;2023-05-16T06:12:09;100143.63;;;18.44;45.88
54666;BME280;40566;50.006;36.180;2023-05-16T06:17:10;100147.09;;;18.60;45.95
54666;BME280;40566;50.006;36.180;2023-05-16T06:22:10;100146.16;;;18.77;45.03
54666;BME280;40566;50.006;36.180;2023-05-16T06:27:11;100147.88;;;18.94;44.41
54666;BME280;40566;50.006;36.180;2023-05-16T06:32:12;100152.34;;;19.08;43.51
54666;BME280;40566;50.006;36.180;2023-05-16T06:37:12;100143.69;;;19.22;42.51
54666;BME280;40566;50.006;36.180;2023-05-16T06:42:13;100147.94;;;19.39;42.29
54666;BME280;40566;50.006;36.180;2023-05-16T06:47:14;100149.97;;;19.50;41.57
54666;BME280;40566;50.006;36.180;2023-05-16T06:52:15;100152.81;;;19.61;41.56
54666;BME280;40566;50.006;36.180;2023-05-16T06:57:16;100151.09;;;19.76;40.91
54666;BME280;40566;50.006;36.180;2023-05-16T07:02:16;100152.97;;;19.88;40.54
54666;BME280;40566;50.006;36.180;2023-05-16T07:07:17;100152.06;;;20.04;40.06
54666;BME280;40566;50.006;36.180;2023-05-16T07:12:17;100150.28;;;20.18;39.76
54666;BME280;40566;50.006;36.180;2023-05-16T07:17:18;100160.03;;;20.31;39.57
54666;BME280;40566;50.006;36.180;2023-05-16T07:22:19;100153.91;;;20.45;39.38
54666;BME280;40566;50.006;36.180;2023-05-16T07:27:19;100159.09;;;20.60;39.16
54666;BME280;40566;50.006;36.180;2023-05-16T07:32:20;100149.28;;;20.77;38.90
54666;BME280;40566;50.006;36.180;2023-05-16T07:37:20;100156.59;;;20.86;38.42
54666;BME280;40566;50.006;36.180;2023-05-16T07:42:21;100157.09;;;21.06;38.41
54666;BME280;40566;50.006;36.180;2023-05-16T07:47:22;100162.69;;;21.14;38.03
54666;BME280;40566;50.006;36.180;2023-05-16T07:52:22;100152.47;;;21.09;38.05
54666;BME280;40566;50.006;36.180;2023-05-16T07:57:23;100153.47;;;21.21;37.82
54666;BME280;40566;50.006;36.180;2023-05-16T08:02:24;100151.16;;;21.29;37.73
54666;BME280;40566;50.006;36.180;2023-05-16T08:07:30;100134.41;;;21.45;37.24
54666;BME280;40566;50.006;36.180;2023-05-16T08:12:30;100140.81;;;21.53;37.10
54666;BME280;40566;50.006;36.180;2023-05-16T08:17:31;100139.25;;;21.64;37.08
54666;BME280;40566;50.006;36.180;2023-05-16T08:22:31;100148.34;;;21.72;36.89
54666;BME280;40566;50.006;36.180;2023-05-16T08:27:32;100139.47;;;21.73;36.79
54666;BME280;40566;50.006;36.180;2023-05-16T08:32:33;100139.25;;;21.89;36.38
54666;BME280;40566;50.006;36.180;2023-05-16T08:37:34;100133.47;;;21.97;36.44
54666;BME280;40566;50.006;36.180;2023-05-16T08:42:36;100124.50;;;22.12;35.73
54666;BME280;40566;50.006;36.180;2023-05-16T08:47:38;100131.38;;;22.28;35.77
54666;BME280;40566;50.006;36.180;2023-05-16T08:52:42;100117.31;;;22.40;35.71
54666;BME280;40566;50.006;36.180;2023-05-16T08:57:44;100116.13;;;22.44;35.43
54666;BME280;40566;50.006;36.180;2023-05-16T09:02:45;100119.84;;;22.42;35.93
54666;BME280;40566;50.006;36.180;2023-05-16T09:07:45;100116.09;;;22.57;35.96
54666;BME280;40566;50.006;36.180;2023-05-16T09:12:46;100123.25;;;22.68;35.46
54666;BME280;40566;50.006;36.180;2023-05-16T09:17:47;100108.97;;;22.70;35.38
54666;BME280;40566;50.006;36.180;2023-05-16T09:22:53;100098.22;;;22.73;35.13
54666;BME280;40566;50.006;36.180;2023-05-16T09:27:55;100104.88;;;22.90;35.27
54666;BME280;40566;50.006;36.180;2023-05-16T09:32:56;100110.31;;;23.00;35.22
54666;BME280;40566;50.006;36.180;2023-05-16T09:37:56;100105.41;;;23.20;35.07
54666;BME280;40566;50.006;36.180;2023-05-16T09:43:05;100092.59;;;23.26;34.52
54666;BME280;40566;50.006;36.180;2023-05-16T09:48:08;100094.41;;;23.37;34.29
54666;BME280;40566;50.006;36.180;2023-05-16T09:53:12;100083.03;;;23.48;34.09
54666;BME280;40566;50.006;36.180;2023-05-16T09:58:16;100078.25;;;23.53;33.82
54666;BME280;40566;50.006;36.180;2023-05-16T10:03:17;100087.84;;;23.65;33.84
54666;BME280;40566;50.006;36.180;2023-05-16T10:08:22;100087.53;;;23.81;33.20
54666;BME280;40566;50.006;36.180;2023-05-16T10:13:28;100080.94;;;23.87;33.50
54666;BME280;40566;50.006;36.180;2023-05-16T10:18:31;100080.72;;;23.90;33.50
54666;BME280;40566;50.006;36.180;2023-05-16T10:23:33;100084.91;;;23.81;32.99
54666;BME280;40566;50.006;36.180;2023-05-16T10:28:38;100077.19;;;23.67;33.31
54666;BME280;40566;50.006;36.180;2023-05-16T10:33:40;100072.72;;;23.45;33.35
54666;BME280;40566;50.006;36.180;2023-05-16T10:38:41;100076.94;;;23.59;33.25
54666;BME280;40566;50.006;36.180;2023-05-16T10:43:44;100074.44;;;23.68;33.41
54666;BME280;40566;50.006;36.180;2023-05-16T10:48:55;100075.59;;;23.75;33.02
54666;BME280;40566;50.006;36.180;2023-05-16T10:54:09;100065.03;;;23.75;32.79
54666;BME280;40566;50.006;36.180;2023-05-16T10:59:41;100067.84;;;23.74;33.22
54666;BME280;40566;50.006;36.180;2023-05-16T11:04:48;100062.22;;;23.79;33.21
54666;BME280;40566;50.006;36.180;2023-05-16T11:09:52;100062.81;;;23.82;33.47
54666;BME280;40566;50.006;36.180;2023-05-16T11:15:16;100062.94;;;23.92;32.97
54666;BME280;40566;50.006;36.180;2023-05-16T11:20:35;100056.22;;;23.88;32.98
54666;BME280;40566;50.006;36.180;2023-05-16T11:25:36;100050.31;;;23.84;32.99
54666;BME280;40566;50.006;36.180;2023-05-16T11:30:46;100036.78;;;23.78;33.05
54666;BME280;40566;50.006;36.180;2023-05-16T11:41:05;100037.78;;;23.75;33.16
54666;BME280;40566;50.006;36.180;2023-05-16T11:46:10;100046.69;;;23.85;33.01
54666;BME280;40566;50.006;36.180;2023-05-16T11:51:11;100050.19;;;23.97;32.50
54666;BME280;40566;50.006;36.180;2023-05-16T11:56:14;100055.13;;;24.02;32.44
54666;BME280;40566;50.006;36.180;2023-05-16T12:01:15;100046.81;;;24.06;32.77
54666;BME280;40566;50.006;36.180;2023-05-16T12:06:15;100041.31;;;24.09;32.34
54666;BME280;40566;50.006;36.180;2023-05-16T12:11:16;100039.22;;;24.24;32.36
54666;BME280;40566;50.006;36.180;2023-05-16T12:16:17;100047.53;;;24.31;32.24
54666;BME280;40566;50.006;36.180;2023-05-16T12:21:18;100041.41;;;24.19;32.22
54666;BME280;40566;50.006;36.180;2023-05-16T12:26:29;100037.56;;;24.23;32.20
54666;BME280;40566;50.006;36.180;2023-05-16T12:31:35;100032.38;;;24.33;32.16
54666;BME280;40566;50.006;36.180;2023-05-16T12:36:35;100038.50;;;24.22;31.93
54666;BME280;40566;50.006;36.180;2023-05-16T12:41:40;100027.00;;;24.12;32.04
54666;BME280;40566;50.006;36.180;2023-05-16T12:46:43;100026.38;;;24.20;31.63
54666;BME280;40566;50.006;36.180;2023-05-16T12:51:51;100022.75;;;24.32;31.92
54666;BME280;40566;50.006;36.180;2023-05-16T12:56:51;100031.41;;;24.23;32.14
54666;BME280;40566;50.006;36.180;2023-05-16T13:01:52;100032.41;;;24.10;32.08
54666;BME280;40566;50.006;36.180;2023-05-16T13:06:53;100035.03;;;23.99;32.07
54666;BME280;40566;50.006;36.180;2023-05-16T13:11:53;100032.91;;;23.82;32.36
54666;BME280;40566;50.006;36.180;2023-05-16T13:16:54;100029.56;;;23.80;31.92
54666;BME280;40566;50.006;36.180;2023-05-16T13:21:54;100032.88;;;23.70;32.26
54666;BME280;40566;50.006;36.180;2023-05-16T13:26:55;100019.91;;;23.56;32.32
54666;BME280;40566;50.006;36.180;2023-05-16T13:31:55;100019.78;;;23.58;32.37
54666;BME280;40566;50.006;36.180;2023-05-16T13:36:56;100018.25;;;23.66;32.00
54666;BME280;40566;50.006;36.180;2023-05-16T13:41:57;100019.44;;;23.51;32.26
54666;BME280;40566;50.006;36.180;2023-05-16T13:46:59;100033.81;;;23.35;32.20
54666;BME280;40566;50.006;36.180;2023-05-16T13:51:59;100031.88;;;23.38;32.35
54666;BME280;40566;50.006;36.180;2023-05-16T13:57:00;100026.84;;;23.34;32.50
54666;BME280;40566;50.006;36.180;2023-05-16T14:02:02;100030.69;;;23.30;32.73
54666;BME280;40566;50.006;36.180;2023-05-16T14:07:03;100028.50;;;23.24;32.96
54666;BME280;40566;50.006;36.180;2023-05-16T14:12:05;100024.41;;;23.20;33.04
54666;BME280;40566;50.006;36.180;2023-05-16T14:17:06;100026.06;;;23.10;32.98
54666;BME280;40566;50.006;36.180;2023-05-16T14:22:07;100032.88;;;23.01;33.24
54666;BME280;40566;50.006;36.180;2023-05-16T14:27:07;100027.66;;;22.88;33.58
54666;BME280;40566;50.006;36.180;2023-05-16T14:32:09;100025.72;;;22.79;33.41
54666;BME280;40566;50.006;36.180;2023-05-16T14:37:10;100027.50;;;22.78;33.50
54666;BME280;40566;50.006;36.180;2023-05-16T14:42:11;100023.28;;;22.76;33.51
54666;BME280;40566;50.006;36.180;2023-05-16T14:47:12;100026.41;;;22.70;33.60
54666;BME280;40566;50.006;36.180;2023-05-16T14:52:13;100030.31;;;22.64;33.57
54666;BME280;40566;50.006;36.180;2023-05-16T14:57:13;100027.56;;;22.66;33.46
54666;BME280;40566;50.006;36.180;2023-05-16T15:02:14;100028.13;;;22.58;33.65
54666;BME280;40566;50.006;36.180;2023-05-16T15:07:14;100035.03;;;22.48;34.15
54666;BME280;40566;50.006;36.180;2023-05-16T15:12:15;100033.31;;;22.35;34.11
54666;BME280;40566;50.006;36.180;2023-05-16T15:17:16;100036.25;;;22.31;34.13
54666;BME280;40566;50.006;36.180;2023-05-16T15:22:17;100036.78;;;22.23;34.16
54666;BME280;40566;50.006;36.180;2023-05-16T15:27:18;100042.38;;;22.18;34.40
54666;BME280;40566;50.006;36.180;2023-05-16T15:32:18;100042.94;;;22.11;34.42
54666;BME280;40566;50.006;36.180;2023-05-16T15:37:20;100033.03;;;22.02;34.44
54666;BME280;40566;50.006;36.180;2023-05-16T15:42:21;100044.97;;;21.94;34.62
54666;BME280;40566;50.006;36.180;2023-05-16T15:47:21;100044.66;;;21.86;34.66
54666;BME280;40566;50.006;36.180;2023-05-16T15:52:22;100053.31;;;21.75;34.96
54666;BME280;40566;50.006;36.180;2023-05-16T15:57:22;100047.75;;;21.67;35.02
54666;BME280;40566;50.006;36.180;2023-05-16T16:02:23;100050.25;;;21.56;34.50
54666;BME280;40566;50.006;36.180;2023-05-16T16:07:24;100060.69;;;21.45;34.68
54666;BME280;40566;50.006;36.180;2023-05-16T16:12:28;100042.22;;;21.32;34.80
54666;BME280;40566;50.006;36.180;2023-05-16T16:17:29;100060.94;;;21.14;35.04
54666;BME280;40566;50.006;36.180;2023-05-16T16:22:29;100059.66;;;21.07;34.93
54666;BME280;40566;50.006;36.180;2023-05-16T16:27:30;100063.22;;;20.93;35.39
54666;BME280;40566;50.006;36.180;2023-05-16T16:32:30;100077.59;;;20.88;35.47
54666;BME280;40566;50.006;36.180;2023-05-16T16:37:31;100068.50;;;20.79;35.74
54666;BME280;40566;50.006;36.180;2023-05-16T16:42:33;100076.06;;;20.71;35.78
54666;BME280;40566;50.006;36.180;2023-05-16T16:47:37;100083.00;;;20.57;36.31
54666;BME280;40566;50.006;36.180;2023-05-16T16:52:40;100098.66;;;20.46;36.48
54666;BME280;40566;50.006;36.180;2023-05-16T16:57:42;100101.09;;;20.35;36.99
54666;BME280;40566;50.006;36.180;2023-05-16T17:02:42;100091.53;;;20.19;37.07
54666;BME280;40566;50.006;36.180;2023-05-16T17:07:43;100095.59;;;20.11;37.25
54666;BME280;40566;50.006;36.180;2023-05-16T17:12:43;100096.06;;;20.03;37.41
54666;BME280;40566;50.006;36.180;2023-05-16T17:17:48;100101.78;;;19.95;37.62
54666;BME280;40566;50.006;36.180;2023-05-16T17:22:49;100097.75;;;19.90;37.82
54666;BME280;40566;50.006;36.180;2023-05-16T17:27:49;100112.94;;;19.85;37.54
54666;BME280;40566;50.006;36.180;2023-05-16T17:32:50;100108.78;;;19.80;37.33
54666;BME280;40566;50.006;36.180;2023-05-16T17:37:53;100119.66;;;19.74;37.34
54666;BME280;40566;50.006;36.180;2023-05-16T17:42:53;100118.22;;;19.69;37.32
54666;BME280;40566;50.006;36.180;2023-05-16T17:47:54;100127.03;;;19.68;37.34
54666;BME280;40566;50.006;36.180;2023-05-16T17:52:58;100106.34;;;19.63;36.92
54666;BME280;40566;50.006;36.180;2023-05-16T17:57:59;100119.63;;;19.60;36.64
54666;BME280;40566;50.006;36.180;2023-05-16T18:03:00;100134.91;;;19.53;36.79
54666;BME280;40566;50.006;36.180;2023-05-16T18:08:00;100143.97;;;19.48;36.84
54666;BME280;40566;50.006;36.180;2023-05-16T18:13:03;100145.09;;;19.44;36.93
54666;BME280;40566;50.006;36.180;2023-05-16T18:18:03;100148.72;;;19.41;37.11
54666;BME280;40566;50.006;36.180;2023-05-16T18:23:04;100152.28;;;19.40;36.82
54666;BME280;40566;50.006;36.180;2023-05-16T18:28:05;100145.44;;;19.37;37.11
54666;BME280;40566;50.006;36.180;2023-05-16T18:33:07;100157.69;;;19.37;37.35
54666;BME280;40566;50.006;36.180;2023-05-16T18:38:08;100156.19;;;19.33;37.12
54666;BME280;40566;50.006;36.180;2023-05-16T18:43:08;100163.22;;;19.32;36.66
54666;BME280;40566;50.006;36.180;2023-05-16T18:48:09;100173.72;;;19.32;36.79
54666;BME280;40566;50.006;36.180;2023-05-16T18:53:09;100177.44;;;19.28;36.37
54666;BME280;40566;50.006;36.180;2023-05-16T18:58:10;100186.41;;;19.24;36.53
54666;BME280;40566;50.006;36.180;2023-05-16T19:03:10;100181.34;;;19.21;36.34
54666;BME280;40566;50.006;36.180;2023-05-16T19:08:12;100174.41;;;19.20;36.43
54666;BME280;40566;50.006;36.180;2023-05-16T19:13:13;100171.19;;;19.15;36.58
54666;BME280;40566;50.006;36.180;2023-05-16T19:18:13;100181.00;;;19.11;36.71
54666;BME280;40566;50.006;36.180;2023-05-16T19:23:14;100175.44;;;19.01;36.93
54666;BME280;40566;50.006;36.180;2023-05-16T19:28:14;100170.53;;;18.95;37.08
54666;BME280;40566;50.006;36.180;2023-05-16T19:33:18;100173.34;;;18.92;37.22
54666;BME280;40566;50.006;36.180;2023-05-16T19:38:19;100167.56;;;18.86;37.13
54666;BME280;40566;50.006;36.180;2023-05-16T19:43:22;100168.69;;;18.81;37.24
54666;BME280;40566;50.006;36.180;2023-05-16T19:48:24;100176.09;;;18.73;37.69
54666;BME280;40566;50.006;36.180;2023-05-16T19:53:25;100166.28;;;18.61;37.75
54666;BME280;40566;50.006;36.180;2023-05-16T19:58:26;100171.09;;;18.53;38.10
54666;BME280;40566;50.006;36.180;2023-05-16T20:03:27;100181.91;;;18.47;37.88
54666;BME280;40566;50.006;36.180;2023-05-16T20:08:27;100184.94;;;18.39;37.58
54666;BME280;40566;50.006;36.180;2023-05-16T20:13:28;100188.53;;;18.36;37.61
54666;BME280;40566;50.006;36.180;2023-05-16T20:18:29;100182.66;;;18.33;37.32
54666;BME280;40566;50.006;36.180;2023-05-16T20:23:30;100182.66;;;18.33;37.77
54666;BME280;40566;50.006;36.180;2023-05-16T20:28:31;100192.66;;;18.24;38.02
54666;BME280;40566;50.006;36.180;2023-05-16T20:33:32;100194.19;;;18.13;38.02
54666;BME280;40566;50.006;36.180;2023-05-16T20:38:32;100187.88;;;17.99;38.52
54666;BME280;40566;50.006;36.180;2023-05-16T20:43:33;100196.38;;;17.87;39.03
54666;BME280;40566;50.006;36.180;2023-05-16T20:48:34;100194.16;;;17.78;39.20
54666;BME280;40566;50.006;36.180;2023-05-16T20:53:34;100189.63;;;17.64;39.47
54666;BME280;40566;50.006;36.180;2023-05-16T20:58:35;100182.22;;;17.55;39.73
54666;BME280;40566;50.006;36.180;2023-05-16T21:03:40;100185.09;;;17.50;39.64
54666;BME280;40566;50.006;36.180;2023-05-16T21:08:41;100182.84;;;17.42;39.65
54666;BME280;40566;50.006;36.180;2023-05-16T21:13:41;100179.00;;;17.32;39.71
54666;BME280;40566;50.006;36.180;2023-05-16T21:18:42;100183.66;;;17.25;39.79
54666;BME280;40566;50.006;36.180;2023-05-16T21:23:42;100178.78;;;17.18;39.61
54666;BME280;40566;50.006;36.180;2023-05-16T21:28:43;100181.03;;;17.08;39.82
54666;BME280;40566;50.006;36.180;2023-05-16T21:33:43;100177.06;;;16.99;40.16
54666;BME280;40566;50.006;36.180;2023-05-16T21:38:44;100164.22;;;16.95;40.34
54666;BME280;40566;50.006;36.180;2023-05-16T21:43:44;100178.13;;;16.95;40.22
54666;BME280;40566;50.006;36.180;2023-05-16T21:48:45;100165.19;;;16.92;40.01
54666;BME280;40566;50.006;36.180;2023-05-16T21:53:45;100173.19;;;16.89;39.95
54666;BME280;40566;50.006;36.180;2023-05-16T21:58:46;100182.25;;;16.82;40.02
54666;BME280;40566;50.006;36.180;2023-05-16T22:03:47;100178.78;;;16.81;40.06
54666;BME280;40566;50.006;36.180;2023-05-16T22:08:48;100182.44;;;16.77;40.39
54666;BME280;40566;50.006;36.180;2023-05-16T22:13:48;100171.03;;;16.78;40.04
54666;BME280;40566;50.006;36.180;2023-05-16T22:18:49;100176.22;;;16.80;40.33
54666;BME280;40566;50.006;36.180;2023-05-16T22:23:49;100177.03;;;16.80;40.18
54666;BME280;40566;50.006;36.180;2023-05-16T22:28:50;100176.50;;;16.74;40.28
54666;BME280;40566;50.006;36.180;2023-05-16T22:33:50;100181.66;;;16.75;40.41
54666;BME280;40566;50.006;36.180;2023-05-16T22:38:51;100190.34;;;16.57;40.52
54666;BME280;40566;50.006;36.180;2023-05-16T22:43:51;100195.25;;;16.44;41.08
54666;BME280;40566;50.006;36.180;2023-05-16T22:48:52;100192.28;;;16.33;41.07
54666;BME280;40566;50.006;36.180;2023-05-16T22:53:52;100197.16;;;16.21;41.31
54666;BME280;40566;50.006;36.180;2023-05-16T22:58:53;100186.31;;;16.10;41.27
54666;BME280;40566;50.006;36.180;2023-05-16T23:03:54;100188.53;;;15.99;41.81
54666;BME280;40566;50.006;36.180;2023-05-16T23:08:54;100195.00;;;15.90;42.07
54666;BME280;40566;50.006;36.180;2023-05-16T23:13:55;100199.63;;;15.83;42.30
54666;BME280;40566;50.006;36.180;2023-05-16T23:18:55;100196.38;;;15.78;42.59
54666;BME280;40566;50.006;36.180;2023-05-16T23:23:56;100204.53;;;15.69;42.70
54666;BME280;40566;50.006;36.180;2023-05-16T23:28:57;100201.28;;;15.64;42.91
54666;BME280;40566;50.006;36.180;2023-05-16T23:33:57;100204.06;;;15.59;43.05
54666;BME280;40566;50.006;36.180;2023-05-16T23:38:58;100202.56;;;15.54;43.29
54666;BME280;40566;50.006;36.180;2023-05-16T23:43:58;100209.59;;;15.52;43.41
54666;BME280;40566;50.006;36.180;2023-05-16T23:48:59;100211.56;;;15.46;43.53
54666;BME280;40566;50.006;36.180;2023-05-16T23:54:00;100216.09;;;15.41;43.81
54666;BME280;40566;50.006;36.180;2023-05-16T23:59:00;100218.13;;;15.35;43.67
